sensor_id;sensor_type;location;lat;lon;timestamp;pressure;altitude;pressure_sealevel;temperature;humidity
49463;BME280;35357;51.722;0.500;2022-10-13T00:02:22;101505.17;;;15.36;83.18
49463;BME280;35357;51.722;0.500;2022-10-13T00:04:49;101501.60;;;15.45;82.61
49463;BME280;35357;51.722;0.500;2022-10-13T00:07:16;101499.00;;;14.93;84.71
49463;BME280;35357;51.722;0.500;2022-10-13T00:09:42;101500.81;;;15.43;82.69
49463;BME280;35357;51.722;0.500;2022-10-13T00:12:09;101501.64;;;14.79;85.17
49463;BME280;35357;51.722;0.500;2022-10-13T00:14:36;101500.16;;;16.27;80.58
49463;BME280;35357;51.722;0.500;2022-10-13T00:17:03;101495.34;;;16.53;78.85
49463;BME280;35357;51.722;0.500;2022-10-13T00:19:30;101494.74;;;16.63;77.39
49463;BME280;35357;51.722;0.500;2022-10-13T00:21:57;101486.85;;;16.92;77.49
49463;BME280;35357;51.722;0.500;2022-10-13T00:24:24;101481.79;;;16.67;77.87
49463;BME280;35357;51.722;0.500;2022-10-13T00:26:51;101475.41;;;16.76;77.09
49463;BME280;35357;51.722;0.500;2022-10-13T00:29:19;101479.89;;;17.15;76.25
49463;BME280;35357;51.722;0.500;2022-10-13T00:31:46;101499.48;;;17.13;76.48
49463;BME280;35357;51.722;0.500;2022-10-13T00:34:13;101511.65;;;16.65;77.11
49463;BME280;35357;51.722;0.500;2022-10-13T00:36:40;101508.95;;;16.94;77.18
49463;BME280;35357;51.722;0.500;2022-10-13T00:39:07;101507.02;;;16.59;78.21
49463;BME280;35357;51.722;0.500;2022-10-13T00:41:34;101503.08;;;16.80;77.09
49463;BME280;35357;51.722;0.500;2022-10-13T00:44:04;101514.46;;;16.19;80.44
49463;BME280;35357;51.722;0.500;2022-10-13T00:46:32;101516.84;;;16.00;81.83
49463;BME280;35357;51.722;0.500;2022-10-13T00:49:01;101510.60;;;16.20;80.64
49463;BME280;35357;51.722;0.500;2022-10-13T00:51:33;101503.27;;;16.49;79.75
49463;BME280;35357;51.722;0.500;2022-10-13T00:54:01;101498.13;;;16.42;79.92
49463;BME280;35357;51.722;0.500;2022-10-13T00:56:29;101496.72;;;16.17;81.70
49463;BME280;35357;51.722;0.500;2022-10-13T00:58:57;101493.01;;;15.80;83.79
49463;BME280;35357;51.722;0.500;2022-10-13T01:01:26;101489.96;;;14.86;89.05
49463;BME280;35357;51.722;0.500;2022-10-13T01:03:53;101489.94;;;15.75;86.37
49463;BME280;35357;51.722;0.500;2022-10-13T01:06:20;101493.70;;;15.49;85.81
49463;BME280;35357;51.722;0.500;2022-10-13T01:08:47;101500.87;;;16.02;84.60
49463;BME280;35357;51.722;0.500;2022-10-13T01:11:34;101495.67;;;16.34;83.27
49463;BME280;35357;51.722;0.500;2022-10-13T01:14:14;101499.56;;;15.80;84.79
49463;BME280;35357;51.722;0.500;2022-10-13T01:16:51;101494.11;;;16.31;82.98
49463;BME280;35357;51.722;0.500;2022-10-13T01:19:34;101488.80;;;16.31;83.20
49463;BME280;35357;51.722;0.500;2022-10-13T01:22:12;101474.19;;;16.77;81.65
49463;BME280;35357;51.722;0.500;2022-10-13T01:24:44;101468.89;;;16.62;82.06
49463;BME280;35357;51.722;0.500;2022-10-13T01:27:25;101460.09;;;17.08;81.33
49463;BME280;35357;51.722;0.500;2022-10-13T01:30:08;101453.13;;;16.87;80.88
49463;BME280;35357;51.722;0.500;2022-10-13T01:32:48;101450.27;;;16.83;81.04
49463;BME280;35357;51.722;0.500;2022-10-13T01:35:26;101438.15;;;16.75;80.44
49463;BME280;35357;51.722;0.500;2022-10-13T01:38:02;101433.17;;;16.53;82.65
49463;BME280;35357;51.722;0.500;2022-10-13T01:40:39;101433.07;;;16.45;82.08
49463;BME280;35357;51.722;0.500;2022-10-13T01:43:10;101432.68;;;16.25;84.20
49463;BME280;35357;51.722;0.500;2022-10-13T01:45:41;101427.64;;;15.83;85.61
49463;BME280;35357;51.722;0.500;2022-10-13T01:48:10;101432.57;;;15.43;87.22
49463;BME280;35357;51.722;0.500;2022-10-13T01:50:38;101434.60;;;14.33;90.88
49463;BME280;35357;51.722;0.500;2022-10-13T01:53:05;101434.27;;;14.29;97.49
49463;BME280;35357;51.722;0.500;2022-10-13T01:55:34;101436.15;;;15.21;92.21
49463;BME280;35357;51.722;0.500;2022-10-13T01:58:00;101439.61;;;15.70;88.57
49463;BME280;35357;51.722;0.500;2022-10-13T02:00:32;101442.01;;;15.81;87.97
49463;BME280;35357;51.722;0.500;2022-10-13T02:03:09;101445.60;;;16.00;87.17
49463;BME280;35357;51.722;0.500;2022-10-13T02:05:45;101442.87;;;15.86;86.58
49463;BME280;35357;51.722;0.500;2022-10-13T02:08:18;101443.20;;;16.40;85.86
49463;BME280;35357;51.722;0.500;2022-10-13T02:10:53;101436.67;;;16.57;84.82
49463;BME280;35357;51.722;0.500;2022-10-13T02:13:26;101430.37;;;16.45;84.08
49463;BME280;35357;51.722;0.500;2022-10-13T02:15:58;101431.88;;;16.51;84.68
49463;BME280;35357;51.722;0.500;2022-10-13T02:18:30;101430.81;;;16.32;84.32
49463;BME280;35357;51.722;0.500;2022-10-13T02:20:58;101438.02;;;16.17;84.18
49463;BME280;35357;51.722;0.500;2022-10-13T02:23:26;101435.12;;;16.42;83.74
49463;BME280;35357;51.722;0.500;2022-10-13T02:25:55;101427.11;;;16.95;82.43
49463;BME280;35357;51.722;0.500;2022-10-13T02:28:23;101427.90;;;16.79;83.15
49463;BME280;35357;51.722;0.500;2022-10-13T02:30:50;101434.00;;;16.42;83.35
49463;BME280;35357;51.722;0.500;2022-10-13T02:33:23;101435.14;;;16.37;83.60
49463;BME280;35357;51.722;0.500;2022-10-13T02:35:51;101434.14;;;16.48;83.54
49463;BME280;35357;51.722;0.500;2022-10-13T02:38:19;101433.97;;;16.32;83.47
49463;BME280;35357;51.722;0.500;2022-10-13T02:40:45;101432.52;;;16.39;83.30
49463;BME280;35357;51.722;0.500;2022-10-13T02:43:13;101435.31;;;16.62;83.16
49463;BME280;35357;51.722;0.500;2022-10-13T02:45:40;101435.74;;;16.59;83.25
49463;BME280;35357;51.722;0.500;2022-10-13T02:48:07;101433.29;;;16.65;83.16
49463;BME280;35357;51.722;0.500;2022-10-13T02:50:35;101430.19;;;16.44;83.15
49463;BME280;35357;51.722;0.500;2022-10-13T02:53:02;101426.80;;;16.51;82.89
49463;BME280;35357;51.722;0.500;2022-10-13T02:55:29;101423.41;;;16.84;81.04
49463;BME280;35357;51.722;0.500;2022-10-13T02:57:57;101426.73;;;16.63;82.10
49463;BME280;35357;51.722;0.500;2022-10-13T03:00:23;101429.12;;;16.38;82.43
49463;BME280;35357;51.722;0.500;2022-10-13T03:02:50;101431.62;;;16.64;82.97
49463;BME280;35357;51.722;0.500;2022-10-13T03:05:17;101440.49;;;16.17;82.85
49463;BME280;35357;51.722;0.500;2022-10-13T03:07:44;101436.80;;;16.38;82.50
49463;BME280;35357;51.722;0.500;2022-10-13T03:10:11;101438.26;;;16.58;82.47
49463;BME280;35357;51.722;0.500;2022-10-13T03:12:38;101444.29;;;16.61;82.85
49463;BME280;35357;51.722;0.500;2022-10-13T03:15:07;101445.49;;;16.17;83.18
49463;BME280;35357;51.722;0.500;2022-10-13T03:17:34;101442.57;;;16.15;83.34
49463;BME280;35357;51.722;0.500;2022-10-13T03:20:01;101438.94;;;16.47;83.06
49463;BME280;35357;51.722;0.500;2022-10-13T03:22:30;101440.10;;;16.79;82.87
49463;BME280;35357;51.722;0.500;2022-10-13T03:24:58;101443.15;;;16.47;83.43
49463;BME280;35357;51.722;0.500;2022-10-13T03:27:26;101438.96;;;16.41;83.23
49463;BME280;35357;51.722;0.500;2022-10-13T03:29:53;101437.36;;;16.18;83.38
49463;BME280;35357;51.722;0.500;2022-10-13T03:32:19;101425.79;;;16.49;83.06
49463;BME280;35357;51.722;0.500;2022-10-13T03:34:46;101426.16;;;16.49;83.12
49463;BME280;35357;51.722;0.500;2022-10-13T03:37:14;101427.82;;;16.49;82.48
49463;BME280;35357;51.722;0.500;2022-10-13T03:39:40;101424.15;;;16.79;81.96
49463;BME280;35357;51.722;0.500;2022-10-13T03:42:08;101422.72;;;16.89;81.53
49463;BME280;35357;51.722;0.500;2022-10-13T03:44:35;101418.31;;;16.45;82.24
49463;BME280;35357;51.722;0.500;2022-10-13T03:47:01;101416.95;;;16.59;82.23
49463;BME280;35357;51.722;0.500;2022-10-13T03:49:28;101410.90;;;16.55;82.48
49463;BME280;35357;51.722;0.500;2022-10-13T03:51:55;101408.89;;;16.56;81.84
49463;BME280;35357;51.722;0.500;2022-10-13T03:54:23;101404.21;;;16.61;82.08
49463;BME280;35357;51.722;0.500;2022-10-13T03:56:50;101399.69;;;16.27;82.43
49463;BME280;35357;51.722;0.500;2022-10-13T03:59:17;101396.22;;;16.75;82.66
49463;BME280;35357;51.722;0.500;2022-10-13T04:01:44;101390.43;;;16.52;82.71
49463;BME280;35357;51.722;0.500;2022-10-13T04:04:11;101391.32;;;16.28;82.72
49463;BME280;35357;51.722;0.500;2022-10-13T04:06:38;101393.10;;;16.49;82.80
49463;BME280;35357;51.722;0.500;2022-10-13T04:09:05;101395.28;;;16.08;83.05
49463;BME280;35357;51.722;0.500;2022-10-13T04:11:32;101393.26;;;16.11;82.90
49463;BME280;35357;51.722;0.500;2022-10-13T04:13:59;101392.39;;;16.58;82.64
49463;BME280;35357;51.722;0.500;2022-10-13T04:16:28;101396.05;;;16.11;82.72
49463;BME280;35357;51.722;0.500;2022-10-13T04:18:58;101397.68;;;16.34;82.70
49463;BME280;35357;51.722;0.500;2022-10-13T04:21:26;101396.17;;;16.32;82.89
49463;BME280;35357;51.722;0.500;2022-10-13T04:23:54;101391.76;;;16.37;82.93
49463;BME280;35357;51.722;0.500;2022-10-13T04:26:22;101386.19;;;16.14;82.74
49463;BME280;35357;51.722;0.500;2022-10-13T04:28:51;101383.66;;;16.61;82.65
49463;BME280;35357;51.722;0.500;2022-10-13T04:31:20;101378.82;;;16.64;82.63
49463;BME280;35357;51.722;0.500;2022-10-13T04:33:47;101374.69;;;16.64;82.74
49463;BME280;35357;51.722;0.500;2022-10-13T04:36:14;101374.38;;;16.65;82.76
49463;BME280;35357;51.722;0.500;2022-10-13T04:38:42;101374.64;;;16.36;82.83
49463;BME280;35357;51.722;0.500;2022-10-13T04:41:10;101377.20;;;16.57;81.51
49463;BME280;35357;51.722;0.500;2022-10-13T04:43:38;101381.62;;;16.38;83.18
49463;BME280;35357;51.722;0.500;2022-10-13T04:46:07;101377.59;;;15.90;84.95
49463;BME280;35357;51.722;0.500;2022-10-13T04:48:35;101377.22;;;15.99;84.31
49463;BME280;35357;51.722;0.500;2022-10-13T04:51:04;101377.47;;;16.31;84.22
49463;BME280;35357;51.722;0.500;2022-10-13T04:53:32;101376.17;;;16.01;84.02
49463;BME280;35357;51.722;0.500;2022-10-13T04:56:01;101375.63;;;16.31;84.00
49463;BME280;35357;51.722;0.500;2022-10-13T04:58:28;101373.44;;;16.12;83.73
49463;BME280;35357;51.722;0.500;2022-10-13T05:00:56;101371.04;;;16.10;83.85
49463;BME280;35357;51.722;0.500;2022-10-13T05:03:24;101368.21;;;16.38;83.97
49463;BME280;35357;51.722;0.500;2022-10-13T05:05:52;101368.58;;;16.09;84.05
49463;BME280;35357;51.722;0.500;2022-10-13T05:08:20;101368.22;;;16.12;83.96
49463;BME280;35357;51.722;0.500;2022-10-13T05:10:55;101367.11;;;16.09;83.96
49463;BME280;35357;51.722;0.500;2022-10-13T05:13:24;101366.41;;;16.31;84.06
49463;BME280;35357;51.722;0.500;2022-10-13T05:15:52;101364.30;;;16.44;83.51
49463;BME280;35357;51.722;0.500;2022-10-13T05:18:19;101361.23;;;16.15;84.06
49463;BME280;35357;51.722;0.500;2022-10-13T05:20:46;101362.81;;;16.27;84.00
49463;BME280;35357;51.722;0.500;2022-10-13T05:23:15;101357.80;;;16.36;83.64
49463;BME280;35357;51.722;0.500;2022-10-13T05:25:42;101354.63;;;16.02;83.77
49463;BME280;35357;51.722;0.500;2022-10-13T05:28:09;101353.51;;;16.04;83.47
49463;BME280;35357;51.722;0.500;2022-10-13T05:30:36;101352.88;;;16.27;83.47
49463;BME280;35357;51.722;0.500;2022-10-13T05:33:04;101350.76;;;16.06;83.52
49463;BME280;35357;51.722;0.500;2022-10-13T05:35:31;101348.46;;;16.14;83.35
49463;BME280;35357;51.722;0.500;2022-10-13T05:37:58;101347.78;;;16.06;83.43
49463;BME280;35357;51.722;0.500;2022-10-13T05:40:26;101346.10;;;16.35;83.31
49463;BME280;35357;51.722;0.500;2022-10-13T05:42:52;101341.54;;;16.21;82.52
49463;BME280;35357;51.722;0.500;2022-10-13T05:45:20;101339.38;;;16.52;81.71
49463;BME280;35357;51.722;0.500;2022-10-13T05:47:49;101342.63;;;15.88;83.21
49463;BME280;35357;51.722;0.500;2022-10-13T05:50:16;101345.53;;;16.14;83.48
49463;BME280;35357;51.722;0.500;2022-10-13T05:52:43;101350.16;;;16.25;83.22
49463;BME280;35357;51.722;0.500;2022-10-13T05:55:13;101346.62;;;16.40;82.16
49463;BME280;35357;51.722;0.500;2022-10-13T05:57:44;101343.43;;;16.10;83.01
49463;BME280;35357;51.722;0.500;2022-10-13T06:00:16;101342.57;;;15.97;83.73
49463;BME280;35357;51.722;0.500;2022-10-13T06:02:47;101344.64;;;16.18;82.63
49463;BME280;35357;51.722;0.500;2022-10-13T06:05:19;101342.53;;;15.95;83.44
49463;BME280;35357;51.722;0.500;2022-10-13T06:07:48;101339.18;;;15.93;83.59
49463;BME280;35357;51.722;0.500;2022-10-13T06:10:15;101337.26;;;15.55;84.58
49463;BME280;35357;51.722;0.500;2022-10-13T06:12:42;101337.16;;;15.67;84.85
49463;BME280;35357;51.722;0.500;2022-10-13T06:15:09;101339.21;;;15.79;84.80
49463;BME280;35357;51.722;0.500;2022-10-13T06:17:41;101339.01;;;15.87;84.38
49463;BME280;35357;51.722;0.500;2022-10-13T06:20:09;101340.09;;;15.89;84.37
49463;BME280;35357;51.722;0.500;2022-10-13T06:22:37;101344.60;;;15.97;84.36
49463;BME280;35357;51.722;0.500;2022-10-13T06:25:06;101347.30;;;15.80;84.17
49463;BME280;35357;51.722;0.500;2022-10-13T06:27:34;101347.80;;;15.80;83.81
49463;BME280;35357;51.722;0.500;2022-10-13T06:30:01;101352.85;;;16.23;83.43
49463;BME280;35357;51.722;0.500;2022-10-13T06:32:29;101352.33;;;15.94;83.32
49463;BME280;35357;51.722;0.500;2022-10-13T06:34:55;101347.45;;;16.36;82.89
49463;BME280;35357;51.722;0.500;2022-10-13T06:37:22;101344.98;;;16.32;82.62
49463;BME280;35357;51.722;0.500;2022-10-13T06:39:49;101338.96;;;16.23;81.67
49463;BME280;35357;51.722;0.500;2022-10-13T06:42:16;101332.94;;;16.14;82.90
49463;BME280;35357;51.722;0.500;2022-10-13T06:44:43;101328.58;;;15.97;83.26
49463;BME280;35357;51.722;0.500;2022-10-13T06:47:10;101326.84;;;16.29;82.13
49463;BME280;35357;51.722;0.500;2022-10-13T06:49:38;101327.40;;;15.80;83.65
49463;BME280;35357;51.722;0.500;2022-10-13T06:52:06;101321.01;;;15.97;83.90
49463;BME280;35357;51.722;0.500;2022-10-13T06:54:33;101319.52;;;15.96;83.83
49463;BME280;35357;51.722;0.500;2022-10-13T06:57:00;101318.43;;;16.24;83.59
49463;BME280;35357;51.722;0.500;2022-10-13T06:59:27;101315.84;;;16.12;83.44
49463;BME280;35357;51.722;0.500;2022-10-13T07:01:54;101320.00;;;15.79;83.25
49463;BME280;35357;51.722;0.500;2022-10-13T07:04:22;101322.88;;;15.90;82.93
49463;BME280;35357;51.722;0.500;2022-10-13T07:06:49;101326.89;;;16.13;82.51
49463;BME280;35357;51.722;0.500;2022-10-13T07:09:17;101327.57;;;15.90;82.67
49463;BME280;35357;51.722;0.500;2022-10-13T07:11:44;101336.07;;;15.78;83.15
49463;BME280;35357;51.722;0.500;2022-10-13T07:14:11;101334.96;;;15.80;82.88
49463;BME280;35357;51.722;0.500;2022-10-13T07:16:39;101337.58;;;15.75;83.20
49463;BME280;35357;51.722;0.500;2022-10-13T07:19:06;101339.69;;;15.53;83.37
49463;BME280;35357;51.722;0.500;2022-10-13T07:21:33;101335.32;;;15.67;83.44
49463;BME280;35357;51.722;0.500;2022-10-13T07:24:01;101339.15;;;15.98;83.05
49463;BME280;35357;51.722;0.500;2022-10-13T07:26:29;101342.11;;;15.87;83.30
49463;BME280;35357;51.722;0.500;2022-10-13T07:28:56;101343.65;;;16.19;83.43
49463;BME280;35357;51.722;0.500;2022-10-13T07:31:23;101351.96;;;16.10;83.00
49463;BME280;35357;51.722;0.500;2022-10-13T07:33:51;101350.21;;;15.88;83.84
49463;BME280;35357;51.722;0.500;2022-10-13T07:36:19;101354.91;;;16.16;83.53
49463;BME280;35357;51.722;0.500;2022-10-13T07:38:46;101357.03;;;16.42;84.03
49463;BME280;35357;51.722;0.500;2022-10-13T07:41:14;101356.25;;;16.27;83.88
49463;BME280;35357;51.722;0.500;2022-10-13T07:43:41;101356.36;;;16.81;83.36
49463;BME280;35357;51.722;0.500;2022-10-13T07:46:09;101355.83;;;16.52;83.61
49463;BME280;35357;51.722;0.500;2022-10-13T07:48:38;101353.32;;;16.80;81.89
49463;BME280;35357;51.722;0.500;2022-10-13T07:51:09;101354.25;;;16.93;81.87
49463;BME280;35357;51.722;0.500;2022-10-13T07:53:37;101357.09;;;16.54;83.48
49463;BME280;35357;51.722;0.500;2022-10-13T07:56:06;101359.03;;;16.18;83.63
49463;BME280;35357;51.722;0.500;2022-10-13T07:58:37;101359.44;;;16.36;82.99
49463;BME280;35357;51.722;0.500;2022-10-13T08:01:05;101366.30;;;15.96;83.21
49463;BME280;35357;51.722;0.500;2022-10-13T08:03:32;101367.49;;;16.50;82.82
49463;BME280;35357;51.722;0.500;2022-10-13T08:06:00;101366.50;;;16.23;82.77
49463;BME280;35357;51.722;0.500;2022-10-13T08:08:29;101370.68;;;16.08;82.81
49463;BME280;35357;51.722;0.500;2022-10-13T08:11:01;101376.58;;;15.99;83.10
49463;BME280;35357;51.722;0.500;2022-10-13T08:13:29;101379.18;;;16.27;83.11
49463;BME280;35357;51.722;0.500;2022-10-13T08:16:00;101376.15;;;16.21;83.28
49463;BME280;35357;51.722;0.500;2022-10-13T08:18:28;101371.77;;;16.50;83.37
49463;BME280;35357;51.722;0.500;2022-10-13T08:20:58;101373.56;;;16.07;82.90
49463;BME280;35357;51.722;0.500;2022-10-13T08:23:25;101376.93;;;16.16;82.90
49463;BME280;35357;51.722;0.500;2022-10-13T08:25:53;101373.46;;;16.15;83.22
49463;BME280;35357;51.722;0.500;2022-10-13T08:28:24;101372.73;;;15.81;82.93
49463;BME280;35357;51.722;0.500;2022-10-13T08:30:52;101370.67;;;15.99;82.55
49463;BME280;35357;51.722;0.500;2022-10-13T08:33:19;101366.30;;;16.25;82.51
49463;BME280;35357;51.722;0.500;2022-10-13T08:35:46;101366.04;;;16.27;81.86
49463;BME280;35357;51.722;0.500;2022-10-13T08:38:14;101362.91;;;15.90;82.06
49463;BME280;35357;51.722;0.500;2022-10-13T08:40:46;101361.82;;;16.31;79.34
49463;BME280;35357;51.722;0.500;2022-10-13T08:43:16;101364.50;;;15.49;83.30
49463;BME280;35357;51.722;0.500;2022-10-13T08:45:44;101365.98;;;15.83;83.15
49463;BME280;35357;51.722;0.500;2022-10-13T08:48:16;101362.18;;;15.84;82.75
49463;BME280;35357;51.722;0.500;2022-10-13T08:50:46;101359.80;;;15.83;82.44
49463;BME280;35357;51.722;0.500;2022-10-13T08:53:22;101360.23;;;16.10;81.21
49463;BME280;35357;51.722;0.500;2022-10-13T08:55:55;101354.59;;;16.13;82.53
49463;BME280;35357;51.722;0.500;2022-10-13T08:58:24;101360.60;;;15.98;82.10
49463;BME280;35357;51.722;0.500;2022-10-13T09:00:59;101357.88;;;15.94;83.24
49463;BME280;35357;51.722;0.500;2022-10-13T09:03:37;101356.17;;;16.14;82.96
49463;BME280;35357;51.722;0.500;2022-10-13T09:06:13;101353.08;;;16.52;81.93
49463;BME280;35357;51.722;0.500;2022-10-13T09:08:43;101360.00;;;16.37;82.64
49463;BME280;35357;51.722;0.500;2022-10-13T09:11:13;101365.67;;;16.50;82.99
49463;BME280;35357;51.722;0.500;2022-10-13T09:13:40;101362.78;;;16.39;82.85
49463;BME280;35357;51.722;0.500;2022-10-13T09:16:08;101358.84;;;16.42;82.54
49463;BME280;35357;51.722;0.500;2022-10-13T09:18:36;101358.15;;;16.38;82.17
49463;BME280;35357;51.722;0.500;2022-10-13T09:21:18;101361.05;;;16.70;81.78
49463;BME280;35357;51.722;0.500;2022-10-13T09:23:48;101357.22;;;16.68;81.29
49463;BME280;35357;51.722;0.500;2022-10-13T09:26:19;101354.10;;;16.80;81.15
49463;BME280;35357;51.722;0.500;2022-10-13T09:28:47;101354.87;;;16.80;80.82
49463;BME280;35357;51.722;0.500;2022-10-13T09:31:17;101358.53;;;16.67;80.40
49463;BME280;35357;51.722;0.500;2022-10-13T09:33:45;101358.12;;;16.97;78.55
49463;BME280;35357;51.722;0.500;2022-10-13T09:36:22;101355.15;;;16.34;75.21
49463;BME280;35357;51.722;0.500;2022-10-13T09:39:06;101354.65;;;16.86;74.33
49463;BME280;35357;51.722;0.500;2022-10-13T09:41:34;101349.55;;;16.93;73.72
49463;BME280;35357;51.722;0.500;2022-10-13T09:44:10;101345.39;;;16.85;74.29
49463;BME280;35357;51.722;0.500;2022-10-13T09:46:45;101342.66;;;16.68;73.95
49463;BME280;35357;51.722;0.500;2022-10-13T09:49:30;101338.66;;;15.68;76.55
49463;BME280;35357;51.722;0.500;2022-10-13T09:52:00;101343.89;;;16.48;75.25
49463;BME280;35357;51.722;0.500;2022-10-13T09:54:36;101338.42;;;16.77;75.18
49463;BME280;35357;51.722;0.500;2022-10-13T09:57:13;101339.73;;;16.59;76.38
49463;BME280;35357;51.722;0.500;2022-10-13T09:59:46;101340.90;;;15.75;77.02
49463;BME280;35357;51.722;0.500;2022-10-13T10:02:20;101344.38;;;16.69;75.39
49463;BME280;35357;51.722;0.500;2022-10-13T10:04:52;101340.30;;;16.58;72.71
49463;BME280;35357;51.722;0.500;2022-10-13T10:07:22;101340.01;;;15.97;75.63
49463;BME280;35357;51.722;0.500;2022-10-13T10:09:54;101338.12;;;16.46;75.46
49463;BME280;35357;51.722;0.500;2022-10-13T10:12:27;101335.04;;;15.95;76.00
49463;BME280;35357;51.722;0.500;2022-10-13T10:14:55;101336.06;;;15.70;72.48
49463;BME280;35357;51.722;0.500;2022-10-13T10:17:27;101335.89;;;16.08;74.97
49463;BME280;35357;51.722;0.500;2022-10-13T10:20:05;101335.25;;;16.48;77.21
49463;BME280;35357;51.722;0.500;2022-10-13T10:22:46;101333.28;;;16.40;74.75
49463;BME280;35357;51.722;0.500;2022-10-13T10:25:24;101335.62;;;16.78;74.33
49463;BME280;35357;51.722;0.500;2022-10-13T10:28:17;101336.87;;;15.58;74.41
49463;BME280;35357;51.722;0.500;2022-10-13T10:31:01;101342.29;;;16.70;71.62
49463;BME280;35357;51.722;0.500;2022-10-13T10:33:43;101344.91;;;16.95;70.67
49463;BME280;35357;51.722;0.500;2022-10-13T10:36:17;101345.23;;;17.00;70.66
49463;BME280;35357;51.722;0.500;2022-10-13T10:38:50;101345.99;;;17.48;68.95
49463;BME280;35357;51.722;0.500;2022-10-13T10:41:32;101348.71;;;17.72;68.44
49463;BME280;35357;51.722;0.500;2022-10-13T10:44:03;101350.52;;;17.94;69.15
49463;BME280;35357;51.722;0.500;2022-10-13T10:46:37;101353.16;;;17.94;70.69
49463;BME280;35357;51.722;0.500;2022-10-13T10:49:12;101348.80;;;18.28;68.63
49463;BME280;35357;51.722;0.500;2022-10-13T10:51:41;101355.80;;;18.46;65.92
49463;BME280;35357;51.722;0.500;2022-10-13T10:54:21;101364.80;;;18.75;65.83
49463;BME280;35357;51.722;0.500;2022-10-13T10:56:55;101363.32;;;19.00;65.93
49463;BME280;35357;51.722;0.500;2022-10-13T10:59:36;101363.97;;;18.55;59.69
49463;BME280;35357;51.722;0.500;2022-10-13T11:02:17;101368.60;;;18.99;61.86
49463;BME280;35357;51.722;0.500;2022-10-13T11:04:52;101364.17;;;18.35;64.93
49463;BME280;35357;51.722;0.500;2022-10-13T11:07:56;101360.26;;;18.19;62.19
49463;BME280;35357;51.722;0.500;2022-10-13T11:10:24;101359.56;;;17.70;68.08
49463;BME280;35357;51.722;0.500;2022-10-13T11:13:24;101357.42;;;18.13;67.59
49463;BME280;35357;51.722;0.500;2022-10-13T11:15:52;101354.51;;;17.78;67.64
49463;BME280;35357;51.722;0.500;2022-10-13T11:21:01;101353.64;;;17.14;70.58
49463;BME280;35357;51.722;0.500;2022-10-13T11:23:33;101359.61;;;17.40;68.91
49463;BME280;35357;51.722;0.500;2022-10-13T11:26:26;101363.17;;;17.90;69.02
49463;BME280;35357;51.722;0.500;2022-10-13T11:28:55;101356.23;;;17.53;66.08
49463;BME280;35357;51.722;0.500;2022-10-13T11:31:27;101347.99;;;17.76;67.17
49463;BME280;35357;51.722;0.500;2022-10-13T11:33:58;101342.79;;;17.79;64.45
49463;BME280;35357;51.722;0.500;2022-10-13T11:36:31;101341.91;;;17.92;64.03
49463;BME280;35357;51.722;0.500;2022-10-13T11:39:14;101348.00;;;17.31;67.08
49463;BME280;35357;51.722;0.500;2022-10-13T11:41:57;101344.66;;;16.26;69.72
49463;BME280;35357;51.722;0.500;2022-10-13T11:44:33;101340.20;;;16.87;68.65
49463;BME280;35357;51.722;0.500;2022-10-13T11:47:13;101335.53;;;18.02;64.69
49463;BME280;35357;51.722;0.500;2022-10-13T11:49:55;101336.45;;;18.40;62.00
49463;BME280;35357;51.722;0.500;2022-10-13T11:52:55;101333.37;;;18.75;63.86
49463;BME280;35357;51.722;0.500;2022-10-13T11:55:35;101327.51;;;18.74;62.71
49463;BME280;35357;51.722;0.500;2022-10-13T11:58:09;101326.52;;;18.46;64.13
49463;BME280;35357;51.722;0.500;2022-10-13T12:00:49;101321.95;;;18.41;60.15
49463;BME280;35357;51.722;0.500;2022-10-13T12:03:20;101317.16;;;19.03;57.72
49463;BME280;35357;51.722;0.500;2022-10-13T12:05:48;101317.76;;;19.19;56.92
49463;BME280;35357;51.722;0.500;2022-10-13T12:08:18;101321.16;;;19.73;59.80
49463;BME280;35357;51.722;0.500;2022-10-13T12:10:51;101315.07;;;18.83;58.09
49463;BME280;35357;51.722;0.500;2022-10-13T12:13:22;101312.94;;;17.95;59.26
49463;BME280;35357;51.722;0.500;2022-10-13T12:15:56;101310.47;;;16.59;65.03
49463;BME280;35357;51.722;0.500;2022-10-13T12:18:26;101309.46;;;18.11;62.74
49463;BME280;35357;51.722;0.500;2022-10-13T12:20:55;101310.27;;;19.08;61.95
49463;BME280;35357;51.722;0.500;2022-10-13T12:23:23;101307.29;;;18.69;60.58
49463;BME280;35357;51.722;0.500;2022-10-13T12:25:51;101303.28;;;19.60;59.34
49463;BME280;35357;51.722;0.500;2022-10-13T12:28:20;101303.73;;;20.22;58.74
49463;BME280;35357;51.722;0.500;2022-10-13T12:30:51;101306.46;;;18.80;58.59
49463;BME280;35357;51.722;0.500;2022-10-13T12:33:26;101310.58;;;19.28;58.71
49463;BME280;35357;51.722;0.500;2022-10-13T12:35:54;101305.08;;;18.49;62.17
49463;BME280;35357;51.722;0.500;2022-10-13T12:38:21;101304.01;;;18.04;63.16
49463;BME280;35357;51.722;0.500;2022-10-13T12:40:50;101297.75;;;17.40;65.48
49463;BME280;35357;51.722;0.500;2022-10-13T12:43:21;101291.44;;;17.64;63.83
49463;BME280;35357;51.722;0.500;2022-10-13T12:45:49;101282.26;;;17.59;65.68
49463;BME280;35357;51.722;0.500;2022-10-13T12:48:34;101277.83;;;17.80;64.94
49463;BME280;35357;51.722;0.500;2022-10-13T12:51:16;101273.24;;;17.13;66.03
49463;BME280;35357;51.722;0.500;2022-10-13T12:53:45;101273.99;;;17.58;66.39
49463;BME280;35357;51.722;0.500;2022-10-13T12:56:24;101275.46;;;17.29;66.83
49463;BME280;35357;51.722;0.500;2022-10-13T12:58:51;101269.09;;;17.46;64.53
49463;BME280;35357;51.722;0.500;2022-10-13T13:01:27;101263.67;;;18.21;62.77
49463;BME280;35357;51.722;0.500;2022-10-13T13:03:57;101255.44;;;17.60;64.41
49463;BME280;35357;51.722;0.500;2022-10-13T13:06:30;101264.89;;;18.24;63.71
49463;BME280;35357;51.722;0.500;2022-10-13T13:09:20;101269.57;;;18.40;62.11
49463;BME280;35357;51.722;0.500;2022-10-13T13:11:47;101273.69;;;18.43;64.58